Time;durP1;ratioP1;P1;durP2;ratioP2;P2;SDS_P1;SDS_P2;PMS_P1;PMS_P2;Temp;Humidity;BMP_temperature;BMP_pressure;BME280_temperature;BME280_humidity;BME280_pressure;Samples;Min_cycle;Max_cycle;Signal;HPM_P1;HPM_P2
2023/11/04 00:00:22;;;;;;;16.35;7.45;;;;;;;6.87;100.00;96591.84;4948159;28;20045;-94
2023/11/04 00:02:51;;;;;;;14.20;5.07;;;;;;;6.84;100.00;96600.94;4961693;28;20041;-94
2023/11/04 00:05:19;;;;;;;7.32;3.63;;;;;;;6.77;100.00;96576.59;4930974;28;20035;-93
2023/11/04 00:07:47;;;;;;;11.60;4.70;;;;;;;6.87;100.00;96587.41;4931694;28;20070;-94
2023/11/04 00:10:14;;;;;;;8.38;4.38;;;;;;;6.91;100.00;96582.53;4945784;28;20086;-92
2023/11/04 00:12:40;;;;;;;8.65;5.25;;;;;;;6.89;100.00;96577.50;4945138;28;20062;-93
2023/11/04 00:15:06;;;;;;;11.70;4.97;;;;;;;6.95;100.00;96574.00;4957685;28;20474;-93
2023/11/04 00:17:32;;;;;;;13.30;5.03;;;;;;;6.98;100.00;96566.69;4958836;28;20516;-93
2023/11/04 00:19:58;;;;;;;32.65;6.10;;;;;;;6.97;100.00;96559.84;4928453;28;20046;-94
2023/11/04 00:22:36;;;;;;;37.50;6.85;;;;;;;6.95;100.00;96554.81;4940349;28;20145;-93
2023/11/04 00:25:03;;;;;;;46.05;7.43;;;;;;;6.95;100.00;96552.19;4959265;28;20037;-93
2023/11/04 00:27:29;;;;;;;62.35;6.20;;;;;;;6.96;100.00;96545.91;4941671;28;20394;-94
2023/11/04 00:29:55;;;;;;;13.80;5.50;;;;;;;6.98;100.00;96543.06;4924327;28;20034;-93
2023/11/04 00:32:22;;;;;;;73.53;7.15;;;;;;;7.00;100.00;96538.41;4928185;28;20050;-94
2023/11/04 00:35:08;;;;;;;210.93;8.50;;;;;;;7.00;100.00;96525.28;4948330;28;20058;-94
2023/11/04 00:37:54;;;;;;;56.45;7.38;;;;;;;7.02;100.00;96524.06;4953080;28;20041;-94
2023/11/04 00:40:41;;;;;;;218.65;10.50;;;;;;;7.04;100.00;96516.75;4952103;28;20031;-94
2023/11/04 00:43:27;;;;;;;131.10;8.90;;;;;;;7.04;100.00;96506.22;4950793;28;20546;-94
2023/11/04 00:46:13;;;;;;;65.28;5.97;;;;;;;7.04;100.00;96498.38;4943495;28;20153;-93
2023/11/04 00:48:59;;;;;;;26.17;5.68;;;;;;;7.07;100.00;96487.41;4947409;28;20073;-93
2023/11/04 00:51:45;;;;;;;82.35;7.57;;;;;;;7.15;100.00;96490.78;4937367;28;20039;-94
2023/11/04 00:54:31;;;;;;;165.20;8.50;;;;;;;7.17;100.00;96472.97;4961242;28;20047;-93
2023/11/04 00:57:16;;;;;;;216.52;9.50;;;;;;;7.18;100.00;96464.88;4960072;28;20039;-93
2023/11/04 01:00:04;;;;;;;203.65;9.18;;;;;;;7.21;100.00;96450.50;4944656;28;20039;-93
2023/11/04 01:02:52;;;;;;;221.93;8.82;;;;;;;7.19;100.00;96436.78;4944476;28;20038;-94
2023/11/04 01:05:38;;;;;;;208.07;9.85;;;;;;;7.23;100.00;96434.53;4933340;28;20062;-94
2023/11/04 01:08:24;;;;;;;;;;;;;;;7.24;100.00;96434.31;4930123;29;20075;-94
2023/11/04 01:11:09;;;;;;;37.00;7.55;;;;;;;7.22;100.00;96414.53;4947637;28;19945;-94
2023/11/04 01:13:58;;;;;;;49.65;8.07;;;;;;;7.16;100.00;96405.72;4935460;28;20049;-94
2023/11/04 01:16:44;;;;;;;147.25;10.20;;;;;;;7.14;100.00;96405.13;4947562;28;20533;-94
2023/11/04 01:19:29;;;;;;;145.05;10.35;;;;;;;7.15;100.00;96401.50;4943235;28;20297;-94
2023/11/04 01:22:15;;;;;;;108.22;8.75;;;;;;;7.12;100.00;96388.81;4953153;28;20039;-94
2023/11/04 01:25:02;;;;;;;36.22;8.20;;;;;;;7.12;100.00;96375.69;4941160;28;20830;-93
2023/11/04 01:27:48;;;;;;;59.22;10.18;;;;;;;7.12;100.00;96365.97;4948424;28;20038;-94
2023/11/04 01:30:33;;;;;;;41.22;9.10;;;;;;;7.11;100.00;96356.50;4934279;28;20091;-94
2023/11/04 01:33:19;;;;;;;85.72;9.57;;;;;;;7.04;100.00;96361.81;4943928;28;20109;-94
2023/11/04 01:36:05;;;;;;;89.28;9.75;;;;;;;7.02;100.00;96344.72;4936216;28;20483;-94
2023/11/04 01:38:53;;;;;;;166.20;10.60;;;;;;;6.93;100.00;96333.69;4946200;28;20038;-94
2023/11/04 01:41:39;;;;;;;155.38;10.63;;;;;;;6.88;100.00;96329.13;4942210;28;20368;-94
2023/11/04 01:44:25;;;;;;;154.13;9.55;;;;;;;6.81;100.00;96317.94;4945493;28;20035;-95
2023/11/04 01:47:12;;;;;;;76.60;7.82;;;;;;;6.78;100.00;96307.88;4944040;28;20514;-95
2023/11/04 01:49:58;;;;;;;50.47;7.55;;;;;;;6.78;100.00;96294.75;4928616;28;20066;-94
2023/11/04 01:52:46;;;;;;;127.80;9.27;;;;;;;6.80;100.00;96283.00;4931457;28;20064;-93
2023/11/04 01:55:32;;;;;;;52.63;7.60;;;;;;;6.79;100.00;96275.34;4944802;28;20685;-94
2023/11/04 01:58:19;;;;;;;30.10;7.00;;;;;;;6.75;100.00;96261.88;4937395;28;20038;-94
2023/11/04 02:01:06;;;;;;;34.67;7.78;;;;;;;6.76;100.00;96262.66;4946866;28;20042;-93
2023/11/04 02:03:53;;;;;;;26.10;7.95;;;;;;;6.76;100.00;96249.56;4958277;28;20060;-94
2023/11/04 02:06:39;;;;;;;17.85;7.72;;;;;;;6.74;100.00;96244.53;4940239;28;20121;-95
2023/11/04 02:09:25;;;;;;;12.98;7.03;;;;;;;6.70;100.00;96243.38;4943555;28;20046;-94
2023/11/04 02:12:14;;;;;;;11.27;6.55;;;;;;;6.65;100.00;96223.06;4941416;28;20035;-93
2023/11/04 02:15:00;;;;;;;10.52;6.85;;;;;;;6.61;100.00;96221.13;4954330;28;20031;-94
2023/11/04 02:17:46;;;;;;;15.27;6.65;;;;;;;6.58;100.00;96211.84;4940610;28;20057;-93
2023/11/04 02:20:34;;;;;;;14.05;6.80;;;;;;;6.50;100.00;96196.44;4946543;28;20416;-93
2023/11/04 02:23:20;;;;;;;11.82;6.60;;;;;;;6.46;100.00;96193.47;4948167;28;20031;-93
2023/11/04 02:26:06;;;;;;;9.57;5.93;;;;;;;6.47;100.00;96181.94;4943075;28;20605;-94
2023/11/04 02:28:52;;;;;;;10.23;6.00;;;;;;;6.51;100.00;96177.84;4950871;28;20065;-94
2023/11/04 02:31:38;;;;;;;9.07;5.80;;;;;;;6.60;100.00;96177.50;4932375;28;20032;-94
2023/11/04 02:34:23;;;;;;;12.70;5.55;;;;;;;6.64;100.00;96168.19;4938671;28;20046;-95
2023/11/04 02:37:09;;;;;;;10.55;4.72;;;;;;;6.64;100.00;96160.31;4921313;29;20043;-94
2023/11/04 02:39:55;;;;;;;8.02;4.63;;;;;;;6.55;100.00;96146.72;4936100;28;20052;-94
2023/11/04 02:42:41;;;;;;;8.65;4.15;;;;;;;6.56;100.00;96145.72;4944069;28;20023;-94
2023/11/04 02:45:27;;;;;;;9.30;4.20;;;;;;;6.57;100.00;96128.94;4947884;28;20050;-93
2023/11/04 02:48:13;;;;;;;9.32;4.28;;;;;;;6.64;100.00;96126.22;4944092;28;20071;-93
2023/11/04 02:50:59;;;;;;;7.88;4.13;;;;;;;6.64;100.00;96113.09;4942335;28;20117;-94
2023/11/04 02:53:44;;;;;;;6.25;3.53;;;;;;;6.65;100.00;96107.63;4941608;28;20054;-94
2023/11/04 02:56:31;;;;;;;10.82;3.33;;;;;;;6.66;100.00;96097.91;4944235;28;20122;-95
2023/11/04 02:59:16;;;;;;;7.75;3.38;;;;;;;6.68;100.00;96088.78;4947832;28;20035;-94
2023/11/04 03:02:02;;;;;;;8.60;3.15;;;;;;;6.76;100.00;96084.22;4949487;28;20039;-94
2023/11/04 03:04:50;;;;;;;7.15;3.30;;;;;;;6.74;100.00;96073.16;4938972;28;20366;-94
2023/11/04 03:07:36;;;;;;;4.75;3.22;;;;;;;6.73;100.00;96056.63;4946595;28;20414;-94
2023/11/04 03:10:22;;;;;;;8.45;3.83;;;;;;;6.78;100.00;96053.31;4933286;28;20130;-94
2023/11/04 03:13:10;;;;;;;8.02;3.80;;;;;;;6.79;100.00;96058.34;4945292;28;20032;-94
2023/11/04 03:15:56;;;;;;;9.82;3.83;;;;;;;6.80;100.00;96035.53;4950135;28;20043;-94
2023/11/04 03:18:43;;;;;;;6.78;4.20;;;;;;;6.82;100.00;96036.06;4940114;28;20042;-94
2023/11/04 03:21:29;;;;;;;8.05;4.28;;;;;;;6.89;100.00;96046.47;4942830;28;20373;-94
2023/11/04 03:24:16;;;;;;;5.82;4.00;;;;;;;6.90;100.00;96043.59;4939513;28;20043;-93
2023/11/04 03:27:04;;;;;;;6.53;4.43;;;;;;;6.91;100.00;96034.69;4941878;28;20089;-94
2023/11/04 03:29:58;;;;;;;6.53;3.30;;;;;;;6.94;100.00;96015.06;4940969;28;20118;-93
2023/11/04 03:32:43;;;;;;;6.35;3.50;;;;;;;6.93;100.00;95992.47;4932929;28;20035;-93
2023/11/04 03:35:31;;;;;;;6.32;3.90;;;;;;;6.93;100.00;95967.03;4950460;28;20446;-93
2023/11/04 03:38:19;;;;;;;5.53;3.53;;;;;;;6.88;100.00;95951.16;4945830;28;20794;-93
2023/11/04 03:41:05;;;;;;;4.28;3.13;;;;;;;6.86;100.00;95939.31;4936956;28;20050;-93
2023/11/04 03:43:52;;;;;;;5.35;3.33;;;;;;;6.82;100.00;95928.47;4929914;28;20038;-93
2023/11/04 03:46:37;;;;;;;7.47;3.70;;;;;;;6.74;100.00;95900.75;4937689;28;20459;-93
2023/11/04 03:49:23;;;;;;;7.53;4.07;;;;;;;6.75;100.00;95909.44;4955137;28;20077;-93
2023/11/04 03:52:09;;;;;;;9.00;3.45;;;;;;;6.76;100.00;95909.22;4932077;28;20047;-93
2023/11/04 03:54:55;;;;;;;6.32;3.65;;;;;;;6.84;100.00;95915.91;4964902;28;20043;-93
2023/11/04 03:57:40;;;;;;;16.10;4.15;;;;;;;6.85;100.00;95907.00;4930447;28;20039;-93
2023/11/04 04:00:27;;;;;;;5.75;4.00;;;;;;;6.84;100.00;95892.31;4942217;28;20043;-93
2023/11/04 04:03:13;;;;;;;6.85;3.72;;;;;;;6.88;100.00;95890.03;4947413;28;20031;-93
2023/11/04 04:06:00;;;;;;;5.22;3.67;;;;;;;6.89;100.00;95881.09;4932916;28;20071;-93
2023/11/04 04:08:46;;;;;;;7.25;3.10;;;;;;;6.79;100.00;95879.06;4944812;28;20039;-93
2023/11/04 04:11:32;;;;;;;3.50;3.20;;;;;;;6.76;100.00;95867.22;4932553;28;20038;-94
2023/11/04 04:14:18;;;;;;;6.35;2.88;;;;;;;6.74;100.00;95861.41;4940580;28;20039;-93
2023/11/04 04:17:03;;;;;;;5.15;2.53;;;;;;;6.68;100.00;95846.59;4927677;28;20030;-88
2023/11/04 04:19:49;;;;;;;7.43;2.83;;;;;;;6.70;100.00;95855.03;4940716;28;20046;-91
2023/11/04 04:22:37;;;;;;;5.80;2.72;;;;;;;6.72;100.00;95846.94;4940762;28;20514;-92
2023/11/04 04:25:23;;;;;;;3.78;2.30;;;;;;;6.68;100.00;95834.28;4941064;28;20085;-94
2023/11/04 04:28:09;;;;;;;6.78;2.83;;;;;;;6.67;100.00;95824.81;4941888;28;20494;-94
2023/11/04 04:30:55;;;;;;;9.93;2.55;;;;;;;6.72;100.00;95823.31;4944597;28;20035;-87
2023/11/04 04:33:41;;;;;;;4.10;1.90;;;;;;;6.70;100.00;95808.59;4963881;28;20105;-90
2023/11/04 04:36:27;;;;;;;8.30;2.08;;;;;;;6.69;100.00;95811.44;4949589;28;20528;-93
2023/11/04 04:39:12;;;;;;;4.53;2.13;;;;;;;6.67;100.00;95797.78;4944276;28;20053;-94
2023/11/04 04:41:58;;;;;;;4.47;1.92;;;;;;;6.68;100.00;95791.50;4944169;28;20078;-93
2023/11/04 04:44:44;;;;;;;6.13;2.10;;;;;;;6.75;100.00;95783.50;4934967;28;20042;-93
2023/11/04 04:47:29;;;;;;;5.47;1.90;;;;;;;6.75;100.00;95788.75;4936427;28;20048;-92
2023/11/04 04:50:15;;;;;;;4.50;2.00;;;;;;;6.79;100.00;95774.09;4933081;28;20039;-94
2023/11/04 04:53:01;;;;;;;7.72;2.38;;;;;;;6.72;100.00;95768.22;4929987;28;20039;-92
2023/11/04 04:55:47;;;;;;;3.28;1.88;;;;;;;6.72;100.00;95768.22;4940519;28;20046;-92
2023/11/04 04:58:33;;;;;;;5.45;2.13;;;;;;;6.74;100.00;95753.81;4959363;28;20101;-93
2023/11/04 05:01:20;;;;;;;2.47;1.52;;;;;;;6.79;100.00;95750.50;4949494;28;20093;-92
2023/11/04 05:04:05;;;;;;;7.88;1.73;;;;;;;6.79;100.00;95738.19;4950042;28;20031;-92
2023/11/04 05:06:51;;;;;;;2.58;1.50;;;;;;;6.83;100.00;95743.75;4943499;29;20039;-92
2023/11/04 05:09:37;;;;;;;4.53;2.00;;;;;;;6.81;100.00;95732.69;4960885;28;20454;-92
2023/11/04 05:12:23;;;;;;;15.50;2.45;;;;;;;6.83;100.00;95725.38;4930113;28;20427;-93
2023/11/04 05:15:09;;;;;;;7.13;1.80;;;;;;;6.87;100.00;95720.44;4937267;28;20550;-93
2023/11/04 05:17:55;;;;;;;;;;;;;;;6.88;100.00;95712.31;4946384;28;20377;-92
2023/11/04 05:20:41;;;;;;;5.22;2.20;;;;;;;6.88;100.00;95707.06;4949062;28;19921;-93
2023/11/04 05:23:27;;;;;;;4.75;1.92;;;;;;;6.88;100.00;95708.94;4948412;28;20480;-92
2023/11/04 05:26:14;;;;;;;7.82;2.58;;;;;;;6.92;100.00;95695.09;4937759;28;20102;-93
2023/11/04 05:28:59;;;;;;;8.25;3.10;;;;;;;6.86;100.00;95696.03;4947600;28;20039;-92
2023/11/04 05:31:46;;;;;;;11.55;3.53;;;;;;;6.86;100.00;95677.66;4947071;28;20043;-92
2023/11/04 05:34:32;;;;;;;6.15;2.58;;;;;;;6.85;100.00;95672.66;4959486;28;20049;-93
2023/11/04 05:37:18;;;;;;;8.43;3.00;;;;;;;6.79;100.00;95664.69;4940697;28;20034;-93
2023/11/04 05:40:05;;;;;;;6.75;2.53;;;;;;;6.77;100.00;95656.25;4939490;28;20129;-94
2023/11/04 05:42:51;;;;;;;4.95;2.50;;;;;;;6.76;100.00;95664.38;4928710;28;20030;-93
2023/11/04 05:45:37;;;;;;;8.23;3.65;;;;;;;6.74;100.00;95656.75;4933704;28;20039;-92
2023/11/04 05:48:22;;;;;;;4.22;2.47;;;;;;;6.76;100.00;95651.25;4944328;28;20039;-92
2023/11/04 05:51:08;;;;;;;3.88;2.17;;;;;;;6.70;100.00;95637.28;4948931;28;20038;-93
2023/11/04 05:53:54;;;;;;;6.03;3.50;;;;;;;6.77;100.00;95635.28;4935751;28;20051;-93
2023/11/04 05:56:39;;;;;;;3.42;1.92;;;;;;;6.77;100.00;95627.41;4946996;28;20122;-92
2023/11/04 05:59:25;;;;;;;3.92;1.58;;;;;;;6.71;100.00;95612.63;4954946;28;20042;-92
2023/11/04 06:02:12;;;;;;;3.38;1.50;;;;;;;6.77;100.00;95616.13;4934758;28;20034;-92
2023/11/04 06:04:58;;;;;;;8.88;1.80;;;;;;;6.74;100.00;95613.97;4933604;28;20499;-92
2023/11/04 06:07:43;;;;;;;6.13;1.63;;;;;;;6.72;100.00;95600.31;4941504;28;20082;-93
2023/11/04 06:10:29;;;;;;;2.20;1.45;;;;;;;6.72;100.00;95603.69;4943652;28;20528;-92
2023/11/04 06:13:15;;;;;;;3.60;1.42;;;;;;;6.67;100.00;95591.31;4947166;28;20105;-92
2023/11/04 06:16:00;;;;;;;2.47;1.17;;;;;;;6.63;100.00;95592.84;4941316;28;20090;-93
2023/11/04 06:18:46;;;;;;;5.40;1.15;;;;;;;6.66;100.00;95579.22;4934784;28;20123;-92
2023/11/04 06:21:32;;;;;;;4.15;1.08;;;;;;;6.67;100.00;95574.78;4955115;28;20372;-92
2023/11/04 06:24:18;;;;;;;5.18;0.90;;;;;;;6.76;100.00;95565.47;4947396;28;20053;-93
2023/11/04 06:27:03;;;;;;;3.90;0.93;;;;;;;6.77;100.00;95556.56;4957132;28;20049;-92
2023/11/04 06:29:49;;;;;;;2.28;0.90;;;;;;;6.79;100.00;95556.31;4941388;28;20070;-92
2023/11/04 06:32:35;;;;;;;4.00;1.02;;;;;;;6.81;100.00;95557.69;4944356;28;20034;-92
2023/11/04 06:35:21;;;;;;;3.10;1.08;;;;;;;6.80;100.00;95548.19;4938106;29;20042;-93
2023/11/04 06:38:06;;;;;;;1.85;0.93;;;;;;;6.85;100.00;95551.94;4933278;28;20031;-92
2023/11/04 06:40:52;;;;;;;6.47;1.95;;;;;;;6.83;100.00;95552.19;4951752;28;20044;-92
2023/11/04 06:43:38;;;;;;;4.53;1.00;;;;;;;6.84;100.00;95553.78;4947943;28;20120;-92
2023/11/04 06:46:24;;;;;;;4.03;0.85;;;;;;;6.79;100.00;95545.81;4945268;28;20039;-95
2023/11/04 06:49:10;;;;;;;7.57;1.00;;;;;;;6.79;100.00;95546.63;4937525;28;20094;-93
2023/11/04 06:51:55;;;;;;;1.38;0.40;;;;;;;6.77;100.00;95542.66;4936646;28;20042;-94
2023/11/04 06:54:21;;;;;;;3.10;0.57;;;;;;;6.78;100.00;95552.91;4941721;28;20062;-94
2023/11/04 06:56:47;;;;;;;4.93;0.60;;;;;;;6.75;100.00;95542.09;4938134;28;20125;-93
2023/11/04 06:59:17;;;;;;;2.85;0.50;;;;;;;6.79;100.00;95543.19;4931101;28;20046;-96
2023/11/04 07:01:47;;;;;;;4.40;1.13;;;;;;;6.88;100.00;95533.09;4927336;29;20047;-95
2023/11/04 07:04:13;;;;;;;6.63;0.63;;;;;;;6.87;100.00;95524.41;4946533;28;21063;-92
2023/11/04 07:06:39;;;;;;;1.98;0.65;;;;;;;6.92;100.00;95521.88;4937794;28;20069;-93
2023/11/04 07:09:05;;;;;;;3.35;0.55;;;;;;;7.01;100.00;95521.41;4925156;28;20042;-92
2023/11/04 07:11:30;;;;;;;5.47;0.60;;;;;;;7.02;100.00;95515.97;4941862;28;20042;-92
2023/11/04 07:13:56;;;;;;;6.07;0.68;;;;;;;7.11;100.00;95512.88;4941091;28;20039;-93
2023/11/04 07:16:22;;;;;;;4.55;0.77;;;;;;;7.07;100.00;95512.59;4923694;28;20047;-92
2023/11/04 07:18:48;;;;;;;4.18;0.60;;;;;;;7.09;100.00;95514.97;4924748;28;20043;-92
2023/11/04 07:21:13;;;;;;;6.93;0.60;;;;;;;7.11;100.00;95494.50;4941828;28;20034;-92
2023/11/04 07:23:40;;;;;;;6.55;0.70;;;;;;;7.13;100.00;95489.81;4923834;28;20041;-92
2023/11/04 07:26:07;;;;;;;5.00;0.73;;;;;;;7.19;100.00;95499.34;4933111;28;20502;-92
2023/11/04 07:28:36;;;;;;;5.25;0.70;;;;;;;7.22;100.00;95488.34;4934809;28;20495;-92
2023/11/04 07:31:03;;;;;;;7.28;1.42;;;;;;;7.22;100.00;95477.84;4937630;28;20027;-91
2023/11/04 07:33:29;;;;;;;2.83;0.68;;;;;;;7.20;100.00;95477.28;4939673;28;20031;-92
2023/11/04 07:35:55;;;;;;;2.45;0.40;;;;;;;7.19;100.00;95475.72;4929654;28;20034;-92
2023/11/04 07:38:21;;;;;;;4.35;0.80;;;;;;;7.19;100.00;95476.50;4939498;28;20461;-92
2023/11/04 07:40:47;;;;;;;3.15;0.40;;;;;;;7.20;100.00;95470.22;4935716;28;20042;-93
2023/11/04 07:43:13;;;;;;;2.05;0.80;;;;;;;7.23;100.00;95468.91;4939328;28;20045;-92
2023/11/04 07:45:39;;;;;;;4.18;0.80;;;;;;;7.23;100.00;95462.88;4950600;28;20043;-92
2023/11/04 07:48:05;;;;;;;2.58;0.45;;;;;;;7.22;100.00;95463.91;4939934;28;20043;-92
2023/11/04 07:50:31;;;;;;;4.40;0.90;;;;;;;7.18;100.00;95453.13;4939759;28;20046;-92
2023/11/04 07:52:57;;;;;;;6.00;0.70;;;;;;;7.19;100.00;95454.69;4933157;28;20548;-92
2023/11/04 07:55:22;;;;;;;2.08;0.75;;;;;;;7.19;100.00;95452.06;4932217;28;20039;-92
2023/11/04 07:57:49;;;;;;;3.38;0.77;;;;;;;7.24;100.00;95459.22;4930377;28;20038;-92
2023/11/04 08:00:15;;;;;;;5.40;1.00;;;;;;;7.26;100.00;95457.13;4945074;28;20047;-93
2023/11/04 08:02:41;;;;;;;2.67;0.60;;;;;;;7.25;100.00;95450.28;4923075;29;20030;-92
2023/11/04 08:05:09;;;;;;;4.35;0.75;;;;;;;7.24;100.00;95451.34;4944337;28;20039;-93
2023/11/04 08:07:37;;;;;;;2.05;0.52;;;;;;;7.21;100.00;95447.38;4937036;29;20039;-92
2023/11/04 08:10:04;;;;;;;6.40;0.98;;;;;;;7.25;100.00;95448.47;4934366;28;20129;-92
2023/11/04 08:12:31;;;;;;;3.78;0.60;;;;;;;7.25;100.00;95451.09;4958525;28;20102;-92
2023/11/04 08:14:57;;;;;;;1.27;0.50;;;;;;;7.26;100.00;95451.88;4929646;28;20058;-91
2023/11/04 08:17:23;;;;;;;4.00;0.60;;;;;;;7.22;100.00;95451.56;4952536;28;20050;-90
2023/11/04 08:19:49;;;;;;;2.92;0.52;;;;;;;7.23;100.00;95442.66;4961709;28;20035;-92
2023/11/04 08:22:15;;;;;;;6.72;1.00;;;;;;;7.24;100.00;95439.00;4932912;28;20027;-90
2023/11/04 08:24:42;;;;;;;7.18;1.08;;;;;;;7.27;100.00;95437.72;4941814;28;20039;-92
2023/11/04 08:27:09;;;;;;;7.03;1.30;;;;;;;7.25;100.00;95445.84;4932912;28;20030;-92
2023/11/04 08:29:35;;;;;;;6.00;1.40;;;;;;;7.23;100.00;95445.28;4968053;28;20039;-92
2023/11/04 08:32:01;;;;;;;6.07;0.98;;;;;;;7.26;100.00;95444.78;4932691;29;20153;-92
2023/11/04 08:34:27;;;;;;;6.13;1.70;;;;;;;7.32;100.00;95440.41;4940897;29;20118;-93
2023/11/04 08:36:53;;;;;;;6.28;1.20;;;;;;;7.34;100.00;95438.31;4955066;28;20035;-91
2023/11/04 08:39:19;;;;;;;4.60;1.23;;;;;;;7.32;100.00;95440.41;4929898;28;20592;-92
2023/11/04 08:41:45;;;;;;;6.97;1.00;;;;;;;7.32;100.00;95446.44;4941424;29;20027;-89
2023/11/04 08:44:17;;;;;;;3.33;0.75;;;;;;;7.38;100.00;95442.03;4965494;28;20387;-89
2023/11/04 08:46:43;;;;;;;6.28;1.27;;;;;;;7.38;100.00;95438.59;4940264;28;20042;-91
2023/11/04 08:49:09;;;;;;;5.25;0.77;;;;;;;7.38;100.00;95438.59;4925429;28;20042;-90
2023/11/04 08:51:35;;;;;;;3.78;0.88;;;;;;;7.37;100.00;95432.56;4930912;29;20039;-90
2023/11/04 08:54:01;;;;;;;5.63;1.13;;;;;;;7.41;100.00;95431.03;4959824;28;20054;-92
2023/11/04 08:56:26;;;;;;;4.25;1.35;;;;;;;7.41;100.00;95435.47;4945906;28;20035;-92
2023/11/04 08:58:55;;;;;;;7.25;1.20;;;;;;;7.42;100.00;95437.84;4929004;28;20038;-93
2023/11/04 09:01:23;;;;;;;4.75;1.02;;;;;;;7.42;100.00;95434.44;4927148;28;20034;-94
2023/11/04 09:03:49;;;;;;;3.78;0.98;;;;;;;7.39;100.00;95430.47;4959973;28;20038;-93
2023/11/04 09:06:15;;;;;;;7.93;0.98;;;;;;;7.41;100.00;95433.66;4959071;28;20102;-93
2023/11/04 09:08:42;;;;;;;6.35;1.23;;;;;;;7.39;100.00;95427.06;4939168;28;20082;-90
2023/11/04 09:11:08;;;;;;;5.38;1.40;;;;;;;7.35;100.00;95424.13;4943281;28;20031;-93
2023/11/04 09:13:34;;;;;;;8.00;0.88;;;;;;;7.37;100.00;95418.63;4947948;28;20086;-94
2023/11/04 09:16:02;;;;;;;6.22;1.00;;;;;;;7.31;100.00;95436.97;4944248;29;20082;-92
2023/11/04 09:18:27;;;;;;;4.90;1.00;;;;;;;7.32;100.00;95430.69;4923139;28;20039;-94
2023/11/04 09:20:53;;;;;;;5.95;0.98;;;;;;;7.34;100.00;95443.56;4924600;29;20058;-92
2023/11/04 09:23:19;;;;;;;3.15;0.73;;;;;;;7.32;100.00;95435.94;4938830;28;20039;-92
2023/11/04 09:25:45;;;;;;;3.45;0.57;;;;;;;7.31;100.00;95431.72;4930159;28;20055;-93
2023/11/04 09:28:12;;;;;;;7.30;1.00;;;;;;;7.35;100.00;95426.75;4934562;28;20476;-93
2023/11/04 09:30:38;;;;;;;4.55;1.25;;;;;;;7.36;100.00;95438.84;4944586;28;20039;-92
2023/11/04 09:33:04;;;;;;;7.78;0.85;;;;;;;7.41;100.00;95436.28;4936454;28;20039;-92
2023/11/04 09:35:29;;;;;;;9.02;0.70;;;;;;;7.35;100.00;95436.47;4924722;29;20035;-94
2023/11/04 09:37:55;;;;;;;5.10;1.33;;;;;;;7.35;100.00;95432.03;4956329;28;20035;-93
2023/11/04 09:40:21;;;;;;;6.22;1.10;;;;;;;7.35;100.00;95432.03;4942943;28;20174;-93
2023/11/04 09:42:47;;;;;;;6.75;1.42;;;;;;;7.34;100.00;95432.28;4943032;28;20185;-91
2023/11/04 09:45:15;;;;;;;6.65;1.35;;;;;;;7.35;100.00;95434.66;4956064;29;20132;-93
2023/11/04 09:47:41;;;;;;;4.10;0.90;;;;;;;7.31;100.00;95433.56;4958454;28;20045;-92
2023/11/04 09:50:10;;;;;;;6.03;0.98;;;;;;;7.34;100.00;95440.16;4927279;28;20042;-92
2023/11/04 09:52:38;;;;;;;4.50;1.10;;;;;;;7.37;100.00;95431.78;4940758;28;20502;-92
2023/11/04 09:55:06;;;;;;;7.78;1.27;;;;;;;7.38;100.00;95428.91;4937362;28;20122;-92
2023/11/04 09:57:33;;;;;;;11.90;1.20;;;;;;;7.43;100.00;95436.03;4918646;28;20464;-93
2023/11/04 10:00:01;;;;;;;7.13;0.90;;;;;;;7.45;100.00;95439.97;4923577;28;20030;-92
2023/11/04 10:02:28;;;;;;;5.30;1.02;;;;;;;7.38;100.00;95435.97;4942295;28;20125;-92
2023/11/04 10:04:54;;;;;;;7.20;1.08;;;;;;;7.42;100.00;95442.34;4935896;28;20510;-91
2023/11/04 10:07:22;;;;;;;6.43;1.23;;;;;;;7.41;100.00;95435.47;4926564;28;20053;-93
2023/11/04 10:09:48;;;;;;;5.25;0.90;;;;;;;7.39;100.00;95429.69;4936019;28;20384;-92
2023/11/04 10:12:15;;;;;;;6.03;0.98;;;;;;;7.35;100.00;95439.09;4957717;28;20039;-92
2023/11/04 10:14:40;;;;;;;4.30;0.80;;;;;;;7.38;100.00;95438.59;4924249;29;20476;-92
2023/11/04 10:17:07;;;;;;;3.70;0.80;;;;;;;7.35;100.00;95439.91;4937199;28;20045;-90
2023/11/04 10:19:37;;;;;;;7.40;0.98;;;;;;;7.40;100.00;95439.16;4931545;28;20111;-90
2023/11/04 10:22:03;;;;;;;5.47;1.25;;;;;;;7.31;100.00;95452.72;4926302;28;20113;-94
2023/11/04 10:24:29;;;;;;;6.60;0.90;;;;;;;7.34;100.00;95448.03;4955408;28;20039;-91
2023/11/04 10:26:56;;;;;;;7.20;1.15;;;;;;;7.36;100.00;95440.69;4932917;28;20101;-91
2023/11/04 10:29:21;;;;;;;7.47;0.70;;;;;;;7.36;100.00;95449.34;4966768;28;20453;-92
2023/11/04 10:31:48;;;;;;;3.45;0.55;;;;;;;7.39;100.00;95451.47;4935255;29;20059;-92
2023/11/04 10:34:18;;;;;;;3.45;1.10;;;;;;;7.42;100.00;95442.34;4939819;28;20044;-92
2023/11/04 10:36:48;;;;;;;2.95;0.90;;;;;;;7.42;100.00;95444.97;4925685;29;20042;-92
2023/11/04 10:39:17;;;;;;;7.70;1.17;;;;;;;7.41;100.00;95451.22;4946508;28;20034;-92
2023/11/04 10:41:48;;;;;;;4.28;1.13;;;;;;;7.37;100.00;95443.06;4940163;28;20038;-92
2023/11/04 10:44:28;;;;;;;4.95;1.27;;;;;;;7.40;100.00;95444.41;4927389;29;20062;-91
2023/11/04 10:46:57;;;;;;;4.22;1.40;;;;;;;7.35;100.00;95445.16;4942762;28;20031;-91
2023/11/04 10:49:26;;;;;;;4.80;1.50;;;;;;;7.40;100.00;95441.78;4956682;28;20503;-91
2023/11/04 10:52:02;;;;;;;5.78;1.50;;;;;;;7.42;100.00;95445.72;4941059;28;20039;-91
2023/11/04 10:54:40;;;;;;;6.07;1.33;;;;;;;7.47;100.00;95441.59;4934105;29;20051;-93
2023/11/04 10:57:24;;;;;;;10.18;1.77;;;;;;;7.47;100.00;95431.84;4927726;29;20032;-91
2023/11/04 10:59:55;;;;;;;8.50;1.95;;;;;;;7.44;100.00;95446.28;4932951;29;20039;-92
2023/11/04 11:02:23;;;;;;;6.20;1.73;;;;;;;7.47;100.00;95433.72;4932526;29;20039;-93
2023/11/04 11:04:50;;;;;;;7.88;1.67;;;;;;;7.50;100.00;95444.50;4933283;29;20043;-92
2023/11/04 11:07:19;;;;;;;7.57;1.73;;;;;;;7.57;100.00;95441.66;4949186;28;20473;-91
2023/11/04 11:09:48;;;;;;;5.00;1.35;;;;;;;7.57;100.00;95442.47;4923122;29;20070;-93
2023/11/04 11:12:20;;;;;;;8.40;1.50;;;;;;;7.60;100.00;95432.50;4921804;29;20031;-92
2023/11/04 11:14:46;;;;;;;7.47;1.48;;;;;;;7.57;100.00;95437.22;4944309;29;20551;-93
2023/11/04 11:17:12;;;;;;;3.90;1.23;;;;;;;7.60;100.00;95437.75;4935961;29;20039;-92
2023/11/04 11:19:48;;;;;;;9.45;1.33;;;;;;;7.72;100.00;95440.22;4922677;29;20039;-93
2023/11/04 11:22:27;;;;;;;7.15;1.33;;;;;;;7.75;100.00;95432.63;4931919;29;20039;-92
2023/11/04 11:24:56;;;;;;;4.85;1.40;;;;;;;7.78;100.00;95432.13;4929945;29;20393;-92
2023/11/04 11:27:22;;;;;;;6.82;1.45;;;;;;;7.84;100.00;95430.31;4936498;29;20043;-92
2023/11/04 11:29:49;;;;;;;6.25;1.60;;;;;;;7.89;100.00;95430.38;4948709;29;20087;-92
2023/11/04 11:32:18;;;;;;;4.15;1.75;;;;;;;7.92;100.00;95434.31;4919844;29;20503;-92
2023/11/04 11:34:51;;;;;;;6.43;2.10;;;;;;;8.00;100.00;95433.06;4942793;29;20388;-92
2023/11/04 11:37:24;;;;;;;10.00;2.42;;;;;;;8.04;100.00;95426.28;4936650;29;20044;-92
2023/11/04 11:39:51;;;;;;;3.05;1.35;;;;;;;8.07;100.00;95439.69;4946367;29;20039;-93
2023/11/04 11:42:24;;;;;;;10.00;2.38;;;;;;;8.14;100.00;95428.16;4926078;29;20507;-92
2023/11/04 11:44:50;;;;;;;5.00;1.90;;;;;;;8.22;100.00;95437.44;4936369;29;20037;-94
2023/11/04 11:47:18;;;;;;;7.65;2.20;;;;;;;8.24;100.00;95428.25;4918960;29;20180;-92
2023/11/04 11:49:43;;;;;;;6.82;1.73;;;;;;;8.35;100.00;95426.47;4947980;28;20032;-93
2023/11/04 11:52:10;;;;;;;7.68;2.10;;;;;;;8.39;100.00;95438.03;4927128;29;20424;-92
2023/11/04 11:54:38;;;;;;;6.22;2.20;;;;;;;8.49;100.00;95424.16;4932992;29;20079;-93
2023/11/04 11:57:05;;;;;;;4.72;2.28;;;;;;;8.53;100.00;95424.44;4912324;29;20094;-93
2023/11/04 11:59:34;;;;;;;6.10;2.70;;;;;;;8.64;100.00;95428.75;4953880;29;20035;-92
2023/11/04 12:02:00;;;;;;;7.32;2.30;;;;;;;8.68;100.00;95419.28;4940565;29;20039;-93
2023/11/04 12:04:26;;;;;;;7.13;2.08;;;;;;;8.69;100.00;95412.97;4930771;29;20039;-92
2023/11/04 12:06:53;;;;;;;4.90;1.55;;;;;;;8.74;100.00;95421.94;4935113;29;20051;-91
2023/11/04 12:09:20;;;;;;;2.80;1.30;;;;;;;8.78;100.00;95428.25;4937559;28;20109;-91
2023/11/04 12:11:46;;;;;;;6.20;2.13;;;;;;;8.76;100.00;95420.63;4937055;29;20039;-93
2023/11/04 12:14:11;;;;;;;8.70;2.35;;;;;;;8.81;100.00;95422.47;4911287;29;20035;-92